createdAt,value
2018-09-01T00:07:27.937Z,91.08
2018-09-01T00:09:56.948Z,91.37
2018-09-01T00:12:26.065Z,90.87
2018-09-01T00:14:55.331Z,90.40
2018-09-01T00:17:31.276Z,90.56
2018-09-01T00:20:02.984Z,90.53
2018-09-01T00:22:36.061Z,90.48
2018-09-01T00:25:06.071Z,90.56
2018-09-01T00:27:35.139Z,91.31
2018-09-01T00:30:05.299Z,91.16
2018-09-01T00:32:59.591Z,91.40
2018-09-01T00:35:29.047Z,90.78
2018-09-01T00:38:03.139Z,90.62
2018-09-01T00:40:32.364Z,91.40
2018-09-01T00:43:02.212Z,91.95
2018-09-01T00:45:31.165Z,92.22
2018-09-01T00:48:00.278Z,92.18
2018-09-01T00:50:29.422Z,92.38
2018-09-01T00:52:58.495Z,92.40
2018-09-01T00:55:31.794Z,92.12
2018-09-01T00:58:01.880Z,91.68
2018-09-01T01:00:30.860Z,92.07
2018-09-01T01:03:00.105Z,92.49
2018-09-01T01:05:29.142Z,92.01
2018-09-01T01:07:58.199Z,91.84
2018-09-01T01:10:27.224Z,92.23
2018-09-01T01:12:56.363Z,92.29
2018-09-01T01:15:25.720Z,92.07
2018-09-01T01:17:54.799Z,91.56
2018-09-01T01:20:25.366Z,92.49
2018-09-01T01:22:57.856Z,92.53
2018-09-01T01:25:27.012Z,93.85
2018-09-01T01:27:56.137Z,92.57
2018-09-01T01:30:27.037Z,91.97
2018-09-01T01:32:56.080Z,91.97
2018-09-01T01:38:18.157Z,92.23
2018-09-01T01:40:47.219Z,93.20
2018-09-01T01:43:16.289Z,93.80
2018-09-01T01:45:45.443Z,94.52
2018-09-01T01:48:14.490Z,94.62
2018-09-01T01:50:43.584Z,95.18
2018-09-01T01:53:12.619Z,95.58
2018-09-01T01:55:41.696Z,95.91
2018-09-01T01:58:10.870Z,95.41
2018-09-01T02:04:10.337Z,96.80
2018-09-01T02:06:39.561Z,97.70
2018-09-01T02:09:09.692Z,98.57
2018-09-01T02:11:38.769Z,99.01
2018-09-01T02:14:08.048Z,98.56
2018-09-01T02:16:37.028Z,98.90
2018-09-01T02:19:06.316Z,99.58
2018-09-01T02:21:35.382Z,99.75
2018-09-01T02:24:05.211Z,100.00
2018-09-01T02:26:34.289Z,100.00
2018-09-01T02:29:04.045Z,100.00
2018-09-01T02:31:33.093Z,100.00
2018-09-01T02:34:02.783Z,100.00
2018-09-01T02:36:32.087Z,100.00
2018-09-01T02:39:02.026Z,100.00
2018-09-01T02:41:31.172Z,100.00
2018-09-01T02:44:00.248Z,100.00
2018-09-01T02:46:29.320Z,100.00
2018-09-01T02:48:58.336Z,100.00
2018-09-01T02:51:27.385Z,100.00
2018-09-01T02:53:56.433Z,100.00
2018-09-01T02:56:26.371Z,100.00
2018-09-01T02:58:55.531Z,100.00
2018-09-01T03:01:29.658Z,100.00
2018-09-01T03:03:58.946Z,100.00
2018-09-01T03:06:32.364Z,100.00
2018-09-01T03:09:10.886Z,100.00
2018-09-01T03:11:40.302Z,100.00
2018-09-01T03:14:09.928Z,100.00
2018-09-01T03:16:39.014Z,100.00
2018-09-01T03:19:09.845Z,100.00
2018-09-01T03:21:39.028Z,100.00
2018-09-01T03:24:08.088Z,100.00
2018-09-01T03:26:37.321Z,100.00
2018-09-01T03:29:06.544Z,100.00
2018-09-01T03:31:35.649Z,100.00
2018-09-01T03:34:05.583Z,100.00
2018-09-01T03:36:34.800Z,100.00
2018-09-01T03:39:05.865Z,100.00
2018-09-01T03:41:40.220Z,100.00
2018-09-01T03:44:09.535Z,100.00
2018-09-01T03:46:38.545Z,100.00
2018-09-01T03:49:09.216Z,100.00
2018-09-01T03:51:38.437Z,100.00
2018-09-01T03:54:07.854Z,100.00
2018-09-01T03:56:37.100Z,100.00
2018-09-01T03:59:06.411Z,100.00
2018-09-01T04:01:35.593Z,100.00
2018-09-01T04:04:05.269Z,100.00
2018-09-01T04:06:34.381Z,100.00
2018-09-01T04:09:04.348Z,100.00
2018-09-01T04:11:33.499Z,100.00
2018-09-01T04:14:02.971Z,100.00
2018-09-01T04:16:32.007Z,100.00
2018-09-01T04:19:05.125Z,100.00
2018-09-01T04:21:35.282Z,100.00
2018-09-01T04:24:04.879Z,100.00
2018-09-01T04:26:34.048Z,100.00
2018-09-01T04:29:04.176Z,100.00
2018-09-01T04:31:33.476Z,100.00
2018-09-01T04:34:03.229Z,100.00
2018-09-01T04:36:32.286Z,100.00
2018-09-01T04:39:01.657Z,100.00
2018-09-01T04:41:30.826Z,100.00
2018-09-01T04:43:59.991Z,100.00
2018-09-01T04:46:29.151Z,100.00
2018-09-01T04:48:58.337Z,100.00
2018-09-01T04:51:27.460Z,100.00
2018-09-01T04:53:56.509Z,100.00
2018-09-01T04:56:25.710Z,100.00
2018-09-01T04:58:55.060Z,100.00
2018-09-01T05:01:24.179Z,100.00
2018-09-01T05:03:53.292Z,100.00
2018-09-01T05:06:22.426Z,100.00
2018-09-01T05:08:51.694Z,100.00
2018-09-01T05:11:20.830Z,100.00
2018-09-01T05:13:49.913Z,100.00
2018-09-01T05:16:19.047Z,100.00
2018-09-01T05:18:48.555Z,99.41
2018-09-01T05:21:24.491Z,99.45
2018-09-01T05:23:53.751Z,100.00
2018-09-01T05:26:23.411Z,100.00
2018-09-01T05:28:52.660Z,100.00
2018-09-01T05:31:22.952Z,100.00
2018-09-01T05:33:53.310Z,100.00
2018-09-01T05:36:22.983Z,98.31
2018-09-01T05:38:52.107Z,96.63
2018-09-01T05:41:22.414Z,96.99
2018-09-01T05:43:51.572Z,96.32
2018-09-01T05:46:25.193Z,97.10
2018-09-01T05:48:54.542Z,94.31
2018-09-01T05:51:27.698Z,92.94
2018-09-01T05:53:56.772Z,93.17
2018-09-01T05:56:34.702Z,90.53
2018-09-01T05:59:04.529Z,89.14
2018-09-01T06:01:33.772Z,88.33
2018-09-01T06:04:03.378Z,85.51
2018-09-01T06:06:43.370Z,87.63
2018-09-01T06:09:17.159Z,86.51
2018-09-01T06:11:46.475Z,86.32
2018-09-01T06:14:15.680Z,85.02
2018-09-01T06:16:44.699Z,81.74
2018-09-01T06:19:15.068Z,79.86
2018-09-01T06:21:43.987Z,81.41
2018-09-01T06:24:13.118Z,82.68
2018-09-01T06:26:42.236Z,85.52
2018-09-01T06:29:19.472Z,85.77
2018-09-01T06:31:54.877Z,89.13
2018-09-01T06:34:24.442Z,90.95
2018-09-01T06:36:53.649Z,91.18
2018-09-01T06:39:23.351Z,91.83
2018-09-01T06:41:52.412Z,91.93
2018-09-01T06:44:21.656Z,90.59
2018-09-01T06:46:51.043Z,88.56
2018-09-01T06:49:20.291Z,85.87
2018-09-01T06:51:49.526Z,86.64
2018-09-01T06:54:18.734Z,85.00
2018-09-01T06:57:16.052Z,82.17
2018-09-01T06:59:45.157Z,79.25
2018-09-01T07:02:14.367Z,80.10
2018-09-01T07:04:43.615Z,78.56
2018-09-01T07:07:12.786Z,78.19
2018-09-01T07:09:41.878Z,80.41
2018-09-01T07:12:11.081Z,76.72
2018-09-01T07:14:40.261Z,75.77
2018-09-01T07:17:09.810Z,74.43
2018-09-01T07:19:38.960Z,73.57
2018-09-01T07:22:35.559Z,73.43
2018-09-01T07:25:05.300Z,73.17
2018-09-01T07:27:34.519Z,71.58
2018-09-01T07:30:04.021Z,72.21
2018-09-01T07:32:33.169Z,72.40
2018-09-01T07:35:02.911Z,72.57
2018-09-01T07:37:31.942Z,72.36
2018-09-01T07:40:00.935Z,75.65
2018-09-01T07:42:29.989Z,74.86
2018-09-01T07:44:59.298Z,75.82
2018-09-01T07:47:28.473Z,76.78
2018-09-01T07:49:57.728Z,75.26
2018-09-01T07:52:27.102Z,72.51
2018-09-01T07:54:56.289Z,70.66
2018-09-01T07:57:25.408Z,72.66
2018-09-01T07:59:54.487Z,74.31
2018-09-01T08:02:23.661Z,73.39
2018-09-01T08:04:52.738Z,75.28
2018-09-01T08:07:21.938Z,72.92
2018-09-01T08:09:51.121Z,71.99
2018-09-01T08:12:20.235Z,71.11
2018-09-01T08:14:49.327Z,69.27
2018-09-01T08:17:18.523Z,69.23
2018-09-01T08:19:47.648Z,67.92
2018-09-01T08:22:30.952Z,68.01
2018-09-01T08:32:32.380Z,74.71
2018-09-01T08:35:01.796Z,74.06
2018-09-01T08:37:31.339Z,74.79
2018-09-01T08:40:00.644Z,75.76
2018-09-01T08:42:29.839Z,76.90
2018-09-01T08:44:59.036Z,79.27
2018-09-01T08:47:28.936Z,77.10
2018-09-01T08:49:57.963Z,78.17
2018-09-01T08:52:27.062Z,75.58
2018-09-01T08:54:56.333Z,73.57
2018-09-01T08:57:25.547Z,67.58
2018-09-01T08:59:54.632Z,68.52
2018-09-01T09:02:24.045Z,69.86
2018-09-01T09:04:53.085Z,73.29
2018-09-01T09:07:22.412Z,70.98
2018-09-01T09:09:51.530Z,67.22
2018-09-01T09:12:20.682Z,63.67
2018-09-01T09:14:49.834Z,64.82
2018-09-01T09:17:28.925Z,65.14
2018-09-01T09:20:08.020Z,65.26
2018-09-01T09:22:44.142Z,64.26
2018-09-01T09:25:33.767Z,62.37
2018-09-01T09:28:12.345Z,59.88
2018-09-01T09:30:46.885Z,61.87
2018-09-01T09:33:23.090Z,59.65
2018-09-01T09:35:58.068Z,62.27
2018-09-01T09:38:33.209Z,62.90
2018-09-01T09:41:07.579Z,62.25
2018-09-01T09:43:47.280Z,66.33
2018-09-01T09:46:24.360Z,70.44
2018-09-01T09:49:00.049Z,71.35
2018-09-01T09:51:38.327Z,72.44
2018-09-01T09:54:07.881Z,73.68
2018-09-01T09:56:36.999Z,72.96
2018-09-01T09:59:06.399Z,73.83
2018-09-01T10:01:40.027Z,74.16
2018-09-01T10:04:09.852Z,73.87
2018-09-01T10:15:17.955Z,95.51
2018-09-01T10:17:47.288Z,96.50
2018-09-01T10:20:16.562Z,81.98
2018-09-01T10:22:46.005Z,81.25
2018-09-01T10:25:15.219Z,79.84
2018-09-01T10:27:44.538Z,77.74
2018-09-01T10:30:24.632Z,83.98
2018-09-01T10:33:03.041Z,87.53
2018-09-01T10:35:47.181Z,90.10
2018-09-01T10:38:43.719Z,88.30
2018-09-01T10:41:23.094Z,83.57
2018-09-01T10:44:03.923Z,85.86
2018-09-01T10:46:41.203Z,80.76
2018-09-01T10:49:19.306Z,77.58
2018-09-01T10:51:59.832Z,81.58
2018-09-01T10:54:38.696Z,76.80
2018-09-01T10:57:13.169Z,76.55
2018-09-01T10:59:47.437Z,73.64
2018-09-01T11:02:27.780Z,74.51
2018-09-01T11:05:06.712Z,70.75
2018-09-01T11:07:52.534Z,67.90
2018-09-01T11:10:42.438Z,66.23
2018-09-01T11:13:26.253Z,67.34
2018-09-01T11:16:05.064Z,72.54
2018-09-01T11:18:43.317Z,72.67
2018-09-01T11:21:24.256Z,70.70
2018-09-01T11:24:04.489Z,69.75
2018-09-01T11:26:45.503Z,70.24
2018-09-01T11:29:27.757Z,64.66
2018-09-01T11:32:01.346Z,69.42
2018-09-01T11:34:35.159Z,71.15
2018-09-01T11:37:16.610Z,70.33
2018-09-01T11:39:51.673Z,72.12
2018-09-01T11:42:31.314Z,74.36
2018-09-01T11:45:05.225Z,70.27
2018-09-01T11:47:41.551Z,66.39
2018-09-01T11:50:23.372Z,65.54
2018-09-01T11:53:03.590Z,61.89
2018-09-01T11:55:40.055Z,61.09
2018-09-01T11:58:18.950Z,59.15
2018-09-01T12:01:00.730Z,56.08
2018-09-01T12:03:52.122Z,55.42
2018-09-01T12:06:30.802Z,53.51
2018-09-01T12:09:22.252Z,52.71
2018-09-01T12:12:00.858Z,52.12
2018-09-01T12:14:38.456Z,53.89
2018-09-01T12:17:16.245Z,50.55
2018-09-01T12:19:56.877Z,53.81
2018-09-01T12:22:35.825Z,53.45
2018-09-01T12:25:16.490Z,53.31
2018-09-01T12:27:54.606Z,53.96
2018-09-01T12:30:31.596Z,53.67
2018-09-01T12:33:12.874Z,53.10
2018-09-01T12:35:50.226Z,52.53
2018-09-01T12:38:26.103Z,50.81
2018-09-01T12:41:14.682Z,50.35
2018-09-01T12:43:51.663Z,49.85
2018-09-01T12:46:35.124Z,49.84
2018-09-01T12:49:18.294Z,50.71
2018-09-01T12:51:59.700Z,48.44
2018-09-01T12:54:36.718Z,50.61
2018-09-01T12:57:16.120Z,49.84
2018-09-01T12:59:50.248Z,49.77
2018-09-01T13:02:28.025Z,50.04
2018-09-01T13:05:04.300Z,51.02
2018-09-01T13:07:40.282Z,52.54
2018-09-01T13:10:21.285Z,52.99
2018-09-01T13:13:15.231Z,51.86
2018-09-01T13:15:52.609Z,51.14
2018-09-01T13:18:28.201Z,52.16
2018-09-01T13:21:07.290Z,53.91
2018-09-01T13:23:42.322Z,53.53
2018-09-01T13:26:17.195Z,51.41
2018-09-01T13:28:52.540Z,51.53
2018-09-01T13:31:29.283Z,52.41
2018-09-01T13:34:06.749Z,54.50
2018-09-01T13:36:42.044Z,55.29
2018-09-01T13:39:12.740Z,55.65
2018-09-01T13:41:46.936Z,56.85
2018-09-01T13:44:32.965Z,56.74
2018-09-01T13:47:06.288Z,55.31
2018-09-01T13:49:39.453Z,55.62
2018-09-01T13:52:13.008Z,53.30
2018-09-01T13:54:51.804Z,54.89
2018-09-01T13:57:26.874Z,55.19
2018-09-01T14:00:04.224Z,55.25
2018-09-01T14:02:41.588Z,56.75
2018-09-01T14:05:15.186Z,56.63
2018-09-01T14:07:48.823Z,55.50
2018-09-01T14:10:20.964Z,56.88
2018-09-01T14:12:53.885Z,56.00
2018-09-01T14:15:26.856Z,56.98
2018-09-01T14:18:03.395Z,56.94
2018-09-01T14:20:39.853Z,58.08
2018-09-01T14:23:11.031Z,57.80
2018-09-01T14:25:55.547Z,57.08
2018-09-01T14:28:31.548Z,57.97
2018-09-01T14:31:07.250Z,56.81
2018-09-01T14:33:42.945Z,56.33
2018-09-01T14:36:34.859Z,56.95
2018-09-01T14:39:15.033Z,56.76
2018-09-01T14:41:51.461Z,56.65
2018-09-01T14:44:28.263Z,54.99
2018-09-01T14:47:05.608Z,56.14
2018-09-01T14:49:41.901Z,56.06
2018-09-01T14:52:15.827Z,54.66
2018-09-01T14:54:52.263Z,54.92
2018-09-01T14:57:27.366Z,55.67
2018-09-01T15:02:58.523Z,54.97
2018-09-01T15:05:36.244Z,56.04
2018-09-01T15:08:12.608Z,56.05
2018-09-01T15:10:49.655Z,54.29
2018-09-01T15:13:26.109Z,54.32
2018-09-01T15:16:05.404Z,54.45
2018-09-01T15:18:41.289Z,52.73
2018-09-01T15:21:18.354Z,53.39
2018-09-01T15:23:54.944Z,53.63
2018-09-01T15:26:31.899Z,55.14
2018-09-01T15:29:08.024Z,55.58
2018-09-01T15:31:37.112Z,56.39
2018-09-01T15:34:06.447Z,55.64
2018-09-01T15:36:35.347Z,55.63
2018-09-01T15:39:13.168Z,55.34
2018-09-01T15:41:49.548Z,55.53
2018-09-01T15:44:26.183Z,55.44
2018-09-01T15:47:02.087Z,54.93
2018-09-01T15:49:38.303Z,54.81
2018-09-01T15:52:14.686Z,54.18
2018-09-01T15:54:50.672Z,54.43
2018-09-01T15:57:36.669Z,53.70
2018-09-01T16:00:14.358Z,54.60
2018-09-01T16:02:49.104Z,54.95
2018-09-01T16:05:25.109Z,54.35
2018-09-01T16:07:59.700Z,53.59
2018-09-01T16:10:32.072Z,54.12
2018-09-01T16:13:05.455Z,54.40
2018-09-01T16:15:39.216Z,55.38
2018-09-01T16:18:16.599Z,55.39
2018-09-01T16:20:51.515Z,54.94
2018-09-01T16:23:26.561Z,55.64
2018-09-01T16:26:18.974Z,55.46
2018-09-01T16:28:51.767Z,54.93
2018-09-01T16:31:23.990Z,55.39
2018-09-01T16:33:57.919Z,56.44
2018-09-01T16:36:31.878Z,56.49
2018-09-01T16:39:04.725Z,56.23
2018-09-01T16:42:43.176Z,58.25
2018-09-01T16:45:23.988Z,56.77
2018-09-01T16:48:00.763Z,57.85
2018-09-01T16:50:36.092Z,58.40
2018-09-01T16:53:12.759Z,59.87
2018-09-01T17:10:21.645Z,61.12
2018-09-01T17:12:51.271Z,62.28
2018-09-01T17:49:09.185Z,61.80
2018-09-01T17:51:38.740Z,61.31
2018-09-01T18:00:40.358Z,62.66
2018-09-01T18:06:12.856Z,60.76
2018-09-01T18:20:32.558Z,61.19
2018-09-01T18:29:40.554Z,61.64
2018-09-01T18:32:15.017Z,61.16
2018-09-01T18:52:46.655Z,64.01
2018-09-01T18:55:19.943Z,63.26
2018-09-01T18:57:53.217Z,65.12
2018-09-01T19:00:29.019Z,65.00
2018-09-01T19:03:03.070Z,66.14
2018-09-01T19:05:35.004Z,65.43
2018-09-01T19:08:04.093Z,65.83
2018-09-01T19:10:33.008Z,67.34
2018-09-01T19:13:06.187Z,68.00
2018-09-01T19:15:35.989Z,68.32
2018-09-01T19:18:05.176Z,67.85
2018-09-01T19:20:42.345Z,68.94
2018-09-01T19:23:11.825Z,69.16
2018-09-01T19:25:40.718Z,68.81
2018-09-01T19:28:10.736Z,69.15
2018-09-01T19:30:40.092Z,69.80
2018-09-01T19:33:09.059Z,70.27
2018-09-01T19:35:38.026Z,70.60
2018-09-01T19:38:07.345Z,70.60
2018-09-01T19:43:54.766Z,71.26
2018-09-01T19:49:14.085Z,71.46
2018-09-01T19:51:43.080Z,71.75
2018-09-01T20:00:24.840Z,71.56
2018-09-01T20:06:14.333Z,72.29
2018-09-01T20:08:43.323Z,72.45
2018-09-01T20:20:55.290Z,73.59
2018-09-01T20:23:24.212Z,74.55
2018-09-01T20:25:54.741Z,74.92
2018-09-01T20:28:25.715Z,75.55
2018-09-01T20:30:56.180Z,75.60
2018-09-01T20:36:19.672Z,76.71
2018-09-01T20:38:48.668Z,77.49
2018-09-01T20:41:19.754Z,78.00
2018-09-01T20:43:50.311Z,77.65
2018-09-01T20:46:19.363Z,78.42
2018-09-01T20:48:48.354Z,78.76
2018-09-01T20:51:17.328Z,78.50
2018-09-01T20:53:46.447Z,79.00
2018-09-01T20:56:15.786Z,79.53
2018-09-01T21:01:35.907Z,80.81
2018-09-01T21:04:08.624Z,80.02
2018-09-01T21:07:02.097Z,80.33
2018-09-01T21:15:39.004Z,82.02
2018-09-01T21:18:07.950Z,81.63
2018-09-01T21:20:37.181Z,81.86
2018-09-01T21:31:51.466Z,79.43
2018-09-01T21:34:20.461Z,79.05
2018-09-01T21:40:06.407Z,79.95
2018-09-01T21:42:40.893Z,80.36
2018-09-01T21:45:10.067Z,81.45
2018-09-01T21:54:07.399Z,80.62
2018-09-01T22:02:38.915Z,81.94
2018-09-01T22:05:13.152Z,81.81
2018-09-01T22:07:48.646Z,81.57
2018-09-01T22:10:38.066Z,81.64
2018-09-01T22:13:07.206Z,81.65
2018-09-01T22:15:36.912Z,81.77
2018-09-01T22:18:05.811Z,81.78
2018-09-01T22:20:34.743Z,82.58
2018-09-01T22:23:03.791Z,81.78
2018-09-01T22:25:32.731Z,82.71
2018-09-01T22:28:01.789Z,82.49
2018-09-01T22:30:31.121Z,82.43
2018-09-01T22:33:00.107Z,81.45
2018-09-01T22:35:29.172Z,80.88
2018-09-01T22:37:58.211Z,80.74
2018-09-01T22:40:27.161Z,81.65
2018-09-01T22:42:56.377Z,80.88
2018-09-01T22:45:25.612Z,82.19
2018-09-01T22:47:54.611Z,81.90
2018-09-01T22:50:23.606Z,83.07
2018-09-01T22:52:53.597Z,82.78
2018-09-01T22:55:22.712Z,81.82
2018-09-01T22:57:51.765Z,81.00
2018-09-01T23:00:20.923Z,80.57
2018-09-01T23:02:49.840Z,80.00
2018-09-01T23:05:19.602Z,79.64
2018-09-01T23:10:41.767Z,79.86
2018-09-01T23:13:10.759Z,79.55
2018-09-01T23:15:40.380Z,80.68
2018-09-01T23:18:10.344Z,80.67
2018-09-01T23:20:40.133Z,80.10
2018-09-01T23:23:09.080Z,80.28
2018-09-01T23:25:40.367Z,81.88
2018-09-01T23:28:10.449Z,81.94
2018-09-01T23:30:39.491Z,81.78
2018-09-01T23:33:08.579Z,81.58
2018-09-01T23:35:38.324Z,82.43
2018-09-01T23:38:07.414Z,82.24
2018-09-01T23:40:36.416Z,82.90
2018-09-01T23:43:06.903Z,82.73
2018-09-01T23:45:36.670Z,83.63
2018-09-01T23:48:05.577Z,83.66
2018-09-01T23:50:34.926Z,85.06
2018-09-01T23:53:03.907Z,84.62
2018-09-01T23:55:32.917Z,84.89
2018-09-01T23:58:01.838Z,85.52
